Time;durP1;ratioP1;P1;durP2;ratioP2;P2;SDS_P1;SDS_P2;PMS_P1;PMS_P2;Temp;Humidity;BMP_temperature;BMP_pressure;BME280_temperature;BME280_humidity;BME280_pressure;Samples;Min_cycle;Max_cycle;Signal;HPM_P1;HPM_P2
2022/04/15 00:00:16;;;;;;;5.30;2.83;;;;;;;15.34;60.92;100404.50;1090964;46;20034;-79
2022/04/15 00:01:21;;;;;;;5.18;2.60;;;;;;;15.33;60.86;100406.34;1088313;47;20030;-80
2022/04/15 00:02:26;;;;;;;4.32;2.47;;;;;;;15.35;60.46;100408.88;1089102;46;20053;-79
2022/04/15 00:03:30;;;;;;;5.20;2.38;;;;;;;15.32;60.48;100407.34;1088241;54;20022;-79
2022/04/15 00:04:35;;;;;;;4.30;2.10;;;;;;;15.29;60.61;100408.53;1088247;54;20038;-79
2022/04/15 00:05:37;;;;;;;7.20;2.10;;;;;;;15.19;60.32;100407.84;1088107;54;20052;-80
2022/04/15 00:06:41;;;;;;;4.43;2.15;;;;;;;15.17;60.50;100411.72;1088110;54;20038;-80
2022/04/15 00:07:43;;;;;;;7.05;2.22;;;;;;;15.15;60.35;100405.63;1088125;54;20034;-79
2022/04/15 00:08:50;;;;;;;4.28;1.80;;;;;;;15.13;59.90;100409.34;1090083;46;20042;-80
2022/04/15 00:09:51;;;;;;;3.50;1.85;;;;;;;15.10;60.33;100404.31;1088131;54;20034;-79
2022/04/15 00:10:57;;;;;;;5.55;1.90;;;;;;;15.10;60.04;100412.38;1090296;46;20034;-79
2022/04/15 00:12:06;;;;;;;4.25;2.10;;;;;;;15.08;59.95;100402.75;1089617;46;20030;-79
2022/04/15 00:13:12;;;;;;;4.43;2.00;;;;;;;15.05;59.89;100412.00;1088117;54;20082;-80
2022/04/15 00:14:13;;;;;;;4.10;1.65;;;;;;;15.05;60.00;100411.19;1088167;54;20037;-79
2022/04/15 00:15:18;;;;;;;5.47;2.20;;;;;;;15.03;59.77;100407.81;1090692;46;20030;-79
2022/04/15 00:16:19;;;;;;;4.72;1.98;;;;;;;15.01;59.94;100412.50;1087946;54;20031;-78
2022/04/15 00:17:23;;;;;;;4.90;2.22;;;;;;;15.01;60.00;100416.06;1088097;54;20038;-79
2022/04/15 00:18:25;;;;;;;3.60;1.88;;;;;;;15.02;59.59;100406.94;1090317;46;20046;-80
2022/04/15 00:19:29;;;;;;;4.65;1.75;;;;;;;15.02;59.87;100404.25;1088751;46;20030;-79
2022/04/15 00:20:30;;;;;;;5.13;2.20;;;;;;;15.02;59.69;100409.66;1088070;54;20037;-79
2022/04/15 00:21:34;;;;;;;3.90;2.20;;;;;;;14.97;59.91;100401.22;1087979;54;20037;-78
2022/04/15 00:22:39;;;;;;;5.25;2.55;;;;;;;14.89;60.50;100403.91;1088116;54;20022;-80
2022/04/15 00:23:41;;;;;;;5.35;2.65;;;;;;;14.80;61.26;100406.59;1088302;47;20015;-79
2022/04/15 00:24:47;;;;;;;6.60;2.58;;;;;;;14.82;61.56;100407.28;1089217;46;20102;-80
2022/04/15 00:25:49;;;;;;;7.55;3.05;;;;;;;14.81;61.52;100402.88;1088119;54;20050;-79
2022/04/15 00:26:53;;;;;;;4.90;2.50;;;;;;;14.80;61.54;100403.88;1088055;54;20030;-79
2022/04/15 00:27:55;;;;;;;5.85;2.78;;;;;;;14.78;61.89;100405.06;1087769;47;20050;-80
2022/04/15 00:28:59;;;;;;;4.78;2.70;;;;;;;14.81;61.65;100400.19;1088543;47;20030;-80
2022/04/15 00:30:01;;;;;;;4.18;2.20;;;;;;;14.86;61.41;100402.41;1088093;54;20042;-80
2022/04/15 00:31:05;;;;;;;4.65;2.78;;;;;;;14.82;61.89;100401.03;1088081;54;20022;-80
2022/04/15 00:32:07;;;;;;;5.82;2.63;;;;;;;14.85;61.68;100402.53;1088589;47;20026;-80
2022/04/15 00:33:11;;;;;;;5.65;3.00;;;;;;;14.81;62.02;100405.59;1088095;54;20042;-80
2022/04/15 00:34:13;;;;;;;4.57;2.83;;;;;;;14.86;62.17;100404.22;1089174;47;20030;-80
2022/04/15 00:35:17;;;;;;;6.97;3.20;;;;;;;14.82;61.91;100401.88;1088105;54;20026;-79
2022/04/15 00:36:18;;;;;;;4.93;2.83;;;;;;;14.87;61.78;100398.69;1088142;54;20015;-80
2022/04/15 00:37:23;;;;;;;6.82;3.17;;;;;;;14.83;62.14;100405.41;1088472;47;20031;-79
2022/04/15 00:38:24;;;;;;;8.25;2.88;;;;;;;14.80;62.51;100401.19;1088055;54;20030;-79
2022/04/15 00:39:29;;;;;;;7.30;3.60;;;;;;;14.75;62.92;100406.22;1089203;47;20027;-80
2022/04/15 00:40:34;;;;;;;5.82;3.40;;;;;;;14.78;62.61;100405.06;1088120;54;20019;-80
2022/04/15 00:41:38;;;;;;;5.35;2.92;;;;;;;14.80;62.58;100400.34;1087991;54;20030;-80
2022/04/15 00:42:42;;;;;;;6.20;3.30;;;;;;;14.79;62.66;100406.72;1088049;54;20031;-79
2022/04/15 00:43:44;;;;;;;7.35;3.13;;;;;;;14.71;62.82;100404.00;1088012;54;20038;-79
2022/04/15 00:44:48;;;;;;;7.20;2.90;;;;;;;14.68;62.82;100407.88;1088745;47;20030;-80
2022/04/15 00:45:50;;;;;;;7.45;3.20;;;;;;;14.61;63.26;100410.34;1087881;54;20061;-80
2022/04/15 01:30:22;;;;;;;7.63;4.00;;;;;;;13.34;68.50;100428.66;1088683;54;20034;-79
2022/04/15 01:31:53;;;;;;;;;;;;;;;13.26;68.59;100420.53;1088381;54;20014;-78
2022/04/15 01:32:54;;;;;;;7.68;4.22;;;;;;;13.23;68.22;100424.34;1096986;39;20172;-77
2022/04/15 01:33:58;;;;;;;6.75;4.35;;;;;;;13.25;68.01;100425.03;1088350;46;20038;-78
2022/04/15 01:35:00;;;;;;;8.00;3.92;;;;;;;13.30;67.96;100419.19;1087986;54;20039;-78
2022/04/15 01:36:04;;;;;;;9.48;4.88;;;;;;;13.25;68.13;100422.34;1088338;54;20014;-78
2022/04/15 01:37:06;;;;;;;8.52;4.10;;;;;;;13.23;68.15;100415.44;1088850;46;20031;-78
2022/04/15 01:38:14;;;;;;;9.00;4.18;;;;;;;13.17;68.43;100419.59;1090042;46;20054;-78
2022/04/15 02:20:03;;;;;;;6.85;3.55;;;;;;;12.24;71.20;100439.28;1088342;54;20030;-84
2022/04/15 02:21:04;;;;;;;7.05;4.00;;;;;;;12.28;71.00;100442.50;1088398;54;20889;-85
2022/04/15 02:22:09;;;;;;;6.75;4.03;;;;;;;12.29;70.75;100445.03;1088395;54;20022;-85
2022/04/15 02:23:13;;;;;;;7.65;4.15;;;;;;;12.28;70.90;100447.88;1088381;54;20030;-82
2022/04/15 02:24:15;;;;;;;5.47;3.28;;;;;;;12.31;71.17;100451.09;1088800;46;20038;-85
2022/04/15 02:25:19;;;;;;;7.32;3.58;;;;;;;12.30;71.26;100454.78;1088355;54;20034;-82
2022/04/15 02:26:21;;;;;;;6.55;3.90;;;;;;;12.32;71.30;100455.47;1090420;46;20018;-85
2022/04/15 02:27:25;;;;;;;6.00;4.00;;;;;;;12.31;71.23;100448.41;1091484;46;20042;-85
2022/04/15 02:28:27;;;;;;;6.80;4.25;;;;;;;12.24;71.23;100447.31;1088585;54;20032;-85
2022/04/15 02:29:32;;;;;;;8.07;4.63;;;;;;;12.23;71.61;100456.34;1088461;54;20095;-84
2022/04/15 02:30:38;;;;;;;7.63;4.50;;;;;;;12.26;71.61;100450.72;1088569;54;20010;-84
2022/04/15 02:31:40;;;;;;;7.40;3.88;;;;;;;12.31;71.23;100450.28;1088386;54;20018;-84
2022/04/15 02:32:44;;;;;;;6.30;4.05;;;;;;;12.30;71.55;100452.09;1088557;54;20019;-85
2022/04/15 02:33:46;;;;;;;6.60;4.05;;;;;;;12.35;71.32;100453.50;1088516;54;20019;-83
2022/04/15 02:34:50;;;;;;;5.60;3.42;;;;;;;12.32;71.39;100454.66;1088590;54;20021;-84
2022/04/15 02:35:55;;;;;;;6.82;3.70;;;;;;;12.32;71.42;100449.28;1088541;54;20022;-84
2022/04/15 02:39:10;;;;;;;8.68;3.67;;;;;;;12.33;71.24;100449.13;1088392;54;20037;-85
2022/04/15 02:40:15;;;;;;;5.68;3.67;;;;;;;12.34;71.36;100452.63;1088260;54;20109;-84
2022/04/15 02:41:17;;;;;;;6.22;4.03;;;;;;;12.26;71.44;100449.84;1088084;54;20051;-83
2022/04/15 02:42:22;;;;;;;8.02;4.20;;;;;;;12.29;71.46;100454.94;1088352;54;20085;-83
2022/04/15 02:43:31;;;;;;;7.40;4.35;;;;;;;12.28;71.83;100454.06;1088512;54;20728;-83
2022/04/15 02:45:39;;;;;;;6.10;3.78;;;;;;;12.25;71.90;100449.00;1088508;54;20018;-85
2022/04/15 02:46:42;;;;;;;7.63;4.38;;;;;;;12.23;71.72;100456.34;1088419;54;20039;-83
2022/04/15 02:47:46;;;;;;;8.77;4.25;;;;;;;12.21;71.68;100461.00;1088411;54;20018;-84
2022/04/15 02:48:47;;;;;;;7.50;4.07;;;;;;;12.21;71.68;100461.00;1088278;54;20038;-84
2022/04/15 02:49:53;;;;;;;7.10;3.97;;;;;;;12.20;71.96;100456.63;1088336;54;20046;-84
2022/04/15 02:53:07;;;;;;;8.52;4.22;;;;;;;12.31;71.60;100453.78;1088393;54;20032;-85
2022/04/15 02:54:09;;;;;;;7.07;3.67;;;;;;;12.35;71.37;100461.53;1088507;54;20030;-84
2022/04/15 02:55:13;;;;;;;7.80;4.00;;;;;;;12.35;71.46;100464.22;1088480;54;20026;-86
2022/04/15 02:56:15;;;;;;;6.85;3.63;;;;;;;12.31;71.15;100459.16;1088433;54;20022;-83
2022/04/15 03:00:28;;;;;;;6.53;3.63;;;;;;;12.39;70.99;100468.28;1089859;39;20674;-85
2022/04/15 03:01:30;;;;;;;5.20;3.13;;;;;;;12.44;70.91;100460.66;1088469;54;20031;-87
2022/04/15 03:02:34;;;;;;;6.53;3.75;;;;;;;12.48;70.69;100464.72;1088486;54;20022;-84
2022/04/15 03:03:36;;;;;;;6.57;3.20;;;;;;;12.52;70.47;100463.44;1088432;54;20022;-85
2022/04/15 03:04:48;;;;;;;7.30;3.10;;;;;;;12.54;70.70;100464.16;1088522;54;20034;-84
2022/04/15 03:05:50;;;;;;;5.03;3.00;;;;;;;12.58;70.37;100462.84;1088602;54;20015;-87
2022/04/15 03:06:55;;;;;;;5.72;2.88;;;;;;;12.59;70.29;100461.84;1092224;39;20230;-87
2022/04/15 03:07:56;;;;;;;5.00;2.85;;;;;;;12.65;70.09;100457.75;1088869;46;20006;-84
2022/04/15 03:09:05;;;;;;;6.20;2.97;;;;;;;12.58;70.27;100462.03;1090211;46;20021;-85
2022/04/15 03:10:08;;;;;;;4.60;3.15;;;;;;;12.56;70.32;100456.81;1088552;54;20038;-86
2022/04/15 03:12:16;;;;;;;8.63;3.67;;;;;;;12.42;70.69;100454.59;1088954;54;20022;-85
2022/04/15 03:13:18;;;;;;;6.18;4.00;;;;;;;12.27;71.24;100463.13;1090502;46;20019;-82
2022/04/15 03:14:47;;;;;;;5.50;3.88;;;;;;;12.20;72.17;100456.63;1088810;54;20026;-84
2022/04/15 03:15:49;;;;;;;8.00;4.18;;;;;;;12.15;72.06;100458.91;1088522;54;20034;-84
2022/04/15 03:17:00;;;;;;;7.07;3.92;;;;;;;12.14;72.18;100463.41;1090980;46;20043;-84
2022/04/15 03:18:02;;;;;;;8.45;4.15;;;;;;;12.09;72.17;100454.97;1091958;46;20018;-85
2022/04/15 03:19:06;;;;;;;6.40;4.13;;;;;;;12.08;72.21;100455.97;1089370;46;20023;-85
2022/04/15 03:22:24;;;;;;;6.10;3.75;;;;;;;12.32;71.27;100457.31;1093612;39;20229;-85
2022/04/15 03:23:26;;;;;;;7.38;3.50;;;;;;;12.35;70.89;100462.38;1092627;46;20030;-86
2022/04/15 03:24:34;;;;;;;5.60;3.28;;;;;;;12.36;71.05;100457.88;1088577;54;20137;-86
2022/04/15 03:26:41;;;;;;;5.95;3.65;;;;;;;12.38;71.14;100461.22;1088493;54;20023;-85
2022/04/15 03:27:44;;;;;;;5.55;3.80;;;;;;;12.35;71.08;100459.69;1088485;54;20022;-85
2022/04/15 03:28:48;;;;;;;5.55;3.92;;;;;;;12.34;71.19;100463.34;1088544;54;20019;-85
2022/04/15 03:29:50;;;;;;;5.55;3.90;;;;;;;12.36;71.08;100466.75;1088279;54;20030;-85
2022/04/15 03:30:56;;;;;;;6.75;3.28;;;;;;;12.38;71.06;100463.91;1088112;54;20030;-84
2022/04/15 03:31:57;;;;;;;5.97;3.30;;;;;;;12.37;70.95;100467.59;1088352;54;20036;-86
2022/04/15 03:34:15;;;;;;;5.60;3.60;;;;;;;12.38;70.85;100462.09;1088422;54;20779;-85
2022/04/15 03:35:35;;;;;;;6.63;4.40;;;;;;;12.27;71.24;100470.31;1088345;54;20030;-86
2022/04/15 03:36:40;;;;;;;8.95;3.80;;;;;;;12.13;71.65;100474.28;1088402;54;20057;-83
2022/04/15 03:37:48;;;;;;;6.38;4.50;;;;;;;12.06;71.68;100470.50;1088312;54;20018;-85
2022/04/15 03:39:00;;;;;;;6.20;4.13;;;;;;;12.08;71.71;100463.16;1089889;46;20626;-84
2022/04/15 03:40:05;;;;;;;6.85;4.30;;;;;;;12.11;71.66;100476.25;1088321;54;20046;-86
2022/04/15 03:41:10;;;;;;;7.57;4.00;;;;;;;12.12;71.81;100464.56;1088351;54;20027;-83
2022/04/15 03:42:11;;;;;;;6.68;4.07;;;;;;;12.13;71.49;100463.56;1090240;46;20046;-85
2022/04/15 03:43:17;;;;;;;6.47;3.95;;;;;;;12.13;71.66;100466.25;1088325;54;20040;-83
2022/04/15 03:44:18;;;;;;;7.93;3.97;;;;;;;12.16;71.56;100466.81;1088267;54;20023;-84
2022/04/15 03:45:23;;;;;;;5.68;3.60;;;;;;;12.18;71.26;100464.00;1088304;54;20079;-84
2022/04/15 03:46:24;;;;;;;7.28;3.50;;;;;;;12.17;71.34;100465.81;1088239;54;20022;-86
2022/04/15 03:47:29;;;;;;;8.13;3.88;;;;;;;12.22;71.11;100470.75;1087878;54;20034;-84
2022/04/15 03:48:30;;;;;;;4.70;3.28;;;;;;;12.12;71.15;100467.22;1088208;54;20010;-85
2022/04/15 03:49:35;;;;;;;6.50;3.28;;;;;;;12.07;71.57;100477.56;1088254;54;20035;-83
2022/04/15 03:50:37;;;;;;;6.05;3.45;;;;;;;11.98;71.72;100473.88;1088321;54;20064;-85
2022/04/15 03:51:44;;;;;;;7.47;3.95;;;;;;;11.85;72.05;100468.81;1088270;54;20099;-84
2022/04/15 03:52:49;;;;;;;6.18;3.75;;;;;;;11.87;71.87;100472.19;1088273;54;20014;-81
2022/04/15 03:54:03;;;;;;;5.63;3.85;;;;;;;11.76;72.24;100470.50;1088254;54;20026;-83
2022/04/15 03:55:12;;;;;;;7.13;3.40;;;;;;;11.74;72.58;100472.50;1088095;54;20086;-83
2022/04/15 03:56:19;;;;;;;6.75;3.72;;;;;;;11.70;72.69;100474.59;1088298;54;20059;-84
2022/04/15 03:57:20;;;;;;;10.48;3.92;;;;;;;11.71;72.28;100475.44;1088273;54;20025;-84
2022/04/15 03:58:25;;;;;;;7.40;4.00;;;;;;;11.74;72.29;100479.66;1088217;54;20034;-83
2022/04/15 03:59:26;;;;;;;5.20;3.50;;;;;;;11.81;72.04;100467.38;1089085;46;20014;-82
2022/04/15 04:00:31;;;;;;;7.13;3.67;;;;;;;11.89;71.83;100470.22;1088221;54;20015;-82
2022/04/15 04:01:32;;;;;;;5.90;3.40;;;;;;;11.96;71.46;100471.34;1089721;46;20029;-83
2022/04/15 04:02:37;;;;;;;6.03;3.58;;;;;;;11.98;71.38;100472.06;1090433;46;20045;-82
2022/04/15 04:03:41;;;;;;;5.32;3.30;;;;;;;11.99;71.19;100481.81;1087831;54;20065;-83
2022/04/15 04:04:42;;;;;;;5.60;3.40;;;;;;;11.93;71.48;100484.19;1087927;54;20023;-83
2022/04/15 04:05:46;;;;;;;7.78;3.22;;;;;;;11.87;71.36;100480.22;1088185;54;20090;-84
2022/04/15 04:06:48;;;;;;;5.28;3.55;;;;;;;11.78;71.85;100478.41;1090469;46;20014;-84
2022/04/15 04:07:53;;;;;;;6.70;3.60;;;;;;;11.77;71.86;100476.72;1091691;46;20038;-84
2022/04/15 04:08:58;;;;;;;6.68;3.75;;;;;;;11.79;71.72;100475.56;1088205;54;20027;-82
2022/04/15 04:09:59;;;;;;;5.38;3.58;;;;;;;11.74;72.14;100479.66;1088257;54;20027;-86
2022/04/15 04:11:06;;;;;;;7.40;3.53;;;;;;;11.65;72.09;100479.53;1088949;46;20010;-84
2022/04/15 04:12:09;;;;;;;7.80;3.50;;;;;;;11.68;72.14;100481.94;1088094;54;20054;-84
2022/04/15 04:13:13;;;;;;;6.38;3.80;;;;;;;11.68;72.04;100483.75;1088238;54;20103;-84
2022/04/15 04:14:14;;;;;;;7.43;4.07;;;;;;;11.73;71.94;100478.84;1089887;46;20042;-83
2022/04/15 04:15:19;;;;;;;5.43;3.72;;;;;;;11.75;72.09;100479.53;1091249;46;20031;-86
2022/04/15 04:16:20;;;;;;;7.30;3.85;;;;;;;11.79;71.76;100485.47;1090753;46;20706;-84
2022/04/15 04:17:25;;;;;;;5.55;3.33;;;;;;;11.80;71.58;100481.78;1088188;54;20038;-84
2022/04/15 04:18:29;;;;;;;6.28;3.33;;;;;;;11.79;71.78;100480.09;1088303;54;20039;-84
2022/04/15 04:19:30;;;;;;;6.07;3.13;;;;;;;11.81;71.77;100480.78;1088146;54;20063;-85
2022/04/15 04:20:35;;;;;;;5.22;3.60;;;;;;;11.86;71.51;100486.56;1087846;54;20031;-84
2022/04/15 04:21:36;;;;;;;6.22;3.65;;;;;;;11.88;71.49;100481.91;1088296;54;20034;-85
2022/04/15 04:22:42;;;;;;;5.22;3.38;;;;;;;11.86;71.60;100487.41;1088835;47;20046;-85
2022/04/15 04:23:43;;;;;;;5.80;3.53;;;;;;;11.80;71.69;100479.94;1088181;54;20019;-85
2022/04/15 04:24:48;;;;;;;5.60;3.78;;;;;;;11.72;72.13;100493.22;1088292;54;20018;-84
2022/04/15 04:25:52;;;;;;;6.05;3.72;;;;;;;11.68;72.25;100484.63;1089365;39;20572;-84
2022/04/15 04:26:57;;;;;;;6.10;3.90;;;;;;;11.74;71.90;100482.34;1088217;54;20022;-85
2022/04/15 04:28:01;;;;;;;6.05;3.83;;;;;;;11.74;71.96;100487.69;1094279;31;20596;-84
2022/04/15 04:29:03;;;;;;;6.47;3.70;;;;;;;11.75;71.87;100490.25;1088257;54;20030;-85
2022/04/15 04:30:09;;;;;;;8.32;3.65;;;;;;;11.70;71.95;100487.13;1088216;54;20034;-85
2022/04/15 04:31:13;;;;;;;7.07;3.75;;;;;;;11.60;72.47;100488.97;1088238;54;20041;-83
2022/04/15 04:32:15;;;;;;;6.93;4.00;;;;;;;11.49;72.39;100488.13;1088056;54;20039;-83
2022/04/15 04:33:19;;;;;;;8.38;4.05;;;;;;;11.53;72.61;100489.53;1087967;54;20037;-86
2022/04/15 04:34:21;;;;;;;5.60;3.22;;;;;;;11.61;72.47;100499.56;1088132;54;20034;-83
2022/04/15 04:35:25;;;;;;;6.03;3.80;;;;;;;11.47;72.61;100492.78;1088113;54;20090;-83
2022/04/15 04:36:27;;;;;;;6.10;3.75;;;;;;;11.34;73.21;100498.38;1087885;54;20038;-83
2022/04/15 04:37:31;;;;;;;6.68;4.28;;;;;;;11.31;73.29;100501.34;1087800;54;20050;-85
2022/04/15 04:38:33;;;;;;;6.63;3.75;;;;;;;11.26;73.60;100500.91;1088258;54;20324;-82
2022/04/15 04:39:37;;;;;;;6.60;4.00;;;;;;;11.17;73.71;100502.59;1088200;54;20035;-83
2022/04/15 04:40:42;;;;;;;7.00;4.20;;;;;;;11.16;73.74;100500.03;1088215;54;20034;-84
2022/04/15 04:41:43;;;;;;;6.80;4.93;;;;;;;11.10;73.68;100501.44;1088682;54;20055;-84
2022/04/15 04:42:53;;;;;;;7.05;4.20;;;;;;;11.06;74.02;100506.22;1089206;46;20038;-84
2022/04/15 04:43:54;;;;;;;6.57;4.13;;;;;;;10.92;74.29;100504.78;1088930;54;20047;-83
2022/04/15 04:45:00;;;;;;;7.07;4.30;;;;;;;10.89;74.38;100512.22;1089008;54;20030;-84
2022/04/15 04:46:04;;;;;;;6.88;4.30;;;;;;;10.88;74.45;100516.75;1088881;54;20030;-86
2022/04/15 04:47:07;;;;;;;7.53;4.28;;;;;;;10.91;74.31;100513.78;1088856;54;20034;-85
2022/04/15 04:48:12;;;;;;;7.50;3.85;;;;;;;10.95;74.22;100511.69;1088907;54;20053;-86
2022/04/15 04:49:13;;;;;;;6.53;3.75;;;;;;;10.90;73.96;100511.25;1088851;54;20035;-87
2022/04/15 04:50:18;;;;;;;6.35;4.05;;;;;;;10.87;74.26;100508.81;1088875;54;21065;-85
2022/04/15 04:51:19;;;;;;;5.65;3.75;;;;;;;10.81;74.23;100512.91;1088914;54;20034;-83
2022/04/15 04:52:24;;;;;;;7.35;4.45;;;;;;;10.81;74.61;100522.75;1090333;46;20026;-84
2022/04/15 04:53:25;;;;;;;7.82;4.60;;;;;;;10.78;74.57;100521.19;1089150;46;20035;-83
2022/04/15 04:54:30;;;;;;;6.70;3.78;;;;;;;10.72;74.94;100519.06;1088715;54;20034;-85
2022/04/15 04:55:32;;;;;;;6.65;4.20;;;;;;;10.71;74.85;100523.56;1090317;46;20036;-84
2022/04/15 04:56:36;;;;;;;7.85;4.20;;;;;;;10.69;74.87;100514.81;1091784;46;20030;-83
2022/04/15 04:57:38;;;;;;;6.50;3.92;;;;;;;10.70;74.75;100519.19;1090331;46;20011;-85
2022/04/15 04:58:56;;;;;;;6.15;4.40;;;;;;;10.70;75.12;100521.88;1089110;54;20073;-85
2022/04/15 05:00:11;;;;;;;7.05;3.83;;;;;;;10.71;75.01;100522.72;1090532;46;20014;-85
2022/04/15 05:01:12;;;;;;;6.15;4.00;;;;;;;10.67;74.83;100531.97;1089920;46;20034;-83
2022/04/15 05:02:16;;;;;;;7.20;3.65;;;;;;;10.69;74.80;100525.50;1089018;54;20019;-84
2022/04/15 05:03:21;;;;;;;5.53;3.78;;;;;;;10.75;74.55;100525.00;1088996;54;20026;-84
2022/04/15 05:04:26;;;;;;;7.15;3.85;;;;;;;10.74;74.78;100530.47;1089058;54;20029;-85
2022/04/15 05:05:31;;;;;;;5.68;3.28;;;;;;;10.77;74.52;100528.34;1089079;54;20019;-85
2022/04/15 05:06:32;;;;;;;6.40;3.58;;;;;;;10.76;74.68;100532.03;1089077;54;20686;-85
2022/04/15 05:07:37;;;;;;;7.57;3.88;;;;;;;10.73;74.52;100529.63;1089027;54;20034;-85
2022/04/15 05:08:39;;;;;;;8.05;3.67;;;;;;;10.72;74.83;100535.94;1089090;54;20030;-83
2022/04/15 05:09:43;;;;;;;6.07;3.72;;;;;;;10.72;74.66;100530.59;1088974;54;20018;-84
2022/04/15 05:10:44;;;;;;;7.15;3.97;;;;;;;10.68;74.74;100533.69;1088823;54;20034;-84
2022/04/15 05:11:49;;;;;;;6.28;4.28;;;;;;;10.64;75.24;100535.78;1089025;54;20034;-84
2022/04/15 05:12:53;;;;;;;6.22;4.20;;;;;;;10.57;75.48;100537.28;1088841;54;20035;-83
2022/04/15 05:13:58;;;;;;;6.75;4.30;;;;;;;10.66;75.22;100536.50;1088875;54;20156;-84
2022/04/15 05:15:02;;;;;;;7.45;4.15;;;;;;;10.63;75.21;100536.75;1088915;54;20034;-85
2022/04/15 05:16:04;;;;;;;5.38;3.67;;;;;;;10.64;75.42;100538.44;1088880;54;20069;-83
2022/04/15 05:17:08;;;;;;;6.03;3.95;;;;;;;10.66;75.24;100547.19;1088863;54;20034;-84
2022/04/15 05:18:10;;;;;;;8.27;4.43;;;;;;;10.67;75.36;100546.22;1090892;46;20038;-83
2022/04/15 05:19:14;;;;;;;5.65;3.60;;;;;;;10.81;74.81;100544.16;1088890;54;20042;-85
2022/04/15 05:20:19;;;;;;;5.75;3.58;;;;;;;10.91;74.41;100550.38;1091599;46;20034;-84
2022/04/15 05:21:20;;;;;;;6.35;3.67;;;;;;;10.97;74.14;100549.84;1088687;54;20757;-84
2022/04/15 05:22:25;;;;;;;6.40;3.45;;;;;;;11.09;73.88;100547.94;1088876;54;20074;-84
2022/04/15 05:23:27;;;;;;;6.55;3.58;;;;;;;11.06;74.04;100543.66;1088937;54;20018;-85
2022/04/15 05:24:31;;;;;;;4.70;3.33;;;;;;;11.10;73.74;100546.91;1088959;54;20036;-84
2022/04/15 05:25:34;;;;;;;6.93;3.65;;;;;;;11.13;73.78;100546.66;1089028;54;20023;-82
2022/04/15 05:26:38;;;;;;;6.18;3.70;;;;;;;11.15;73.78;100541.16;1088853;54;20037;-84
2022/04/15 05:27:45;;;;;;;7.18;3.78;;;;;;;11.21;73.40;100551.34;1089041;54;20034;-86
2022/04/15 05:28:49;;;;;;;5.90;3.70;;;;;;;11.23;73.26;100554.72;1089098;54;20744;-85
2022/04/15 05:29:54;;;;;;;7.15;3.72;;;;;;;11.26;73.36;100550.94;1089106;54;20019;-84
2022/04/15 05:30:58;;;;;;;6.70;3.35;;;;;;;11.32;73.13;100553.91;1099113;39;20598;-84
2022/04/15 05:32:00;;;;;;;5.32;3.35;;;;;;;11.42;72.81;100558.44;1125317;39;20601;-83
2022/04/15 05:34:08;;;;;;;4.97;3.13;;;;;;;11.56;72.41;100552.66;1088811;54;20018;-87
2022/04/15 05:35:16;;;;;;;6.88;3.17;;;;;;;11.65;72.13;100564.38;1077388;54;20884;31
2022/04/15 05:37:23;;;;;;;4.85;3.10;;;;;;;11.68;72.34;100559.59;1089098;54;20010;-84
2022/04/15 05:38:25;;;;;;;8.38;3.53;;;;;;;11.67;72.16;100560.59;1089104;54;20697;-84
2022/04/15 05:39:29;;;;;;;5.63;3.78;;;;;;;11.69;72.33;100560.44;1088956;54;20832;-83
2022/04/15 05:40:31;;;;;;;6.00;3.70;;;;;;;11.70;72.28;100560.31;1089085;54;20038;-84
2022/04/15 05:41:36;;;;;;;5.93;3.60;;;;;;;11.74;72.20;100563.56;1089001;54;20035;-85
2022/04/15 05:42:38;;;;;;;5.60;3.30;;;;;;;11.78;72.05;100564.13;1088780;54;20015;-83
2022/04/15 05:43:43;;;;;;;6.88;3.80;;;;;;;11.84;71.93;100558.19;1088694;54;20029;-86
2022/04/15 05:44:45;;;;;;;6.47;3.38;;;;;;;11.85;71.86;100554.53;1088942;54;20034;-87
2022/04/15 05:45:52;;;;;;;5.53;3.45;;;;;;;11.90;71.95;100554.09;1088978;54;20030;-84
2022/04/15 05:46:56;;;;;;;4.85;3.22;;;;;;;11.89;71.86;100555.09;1089006;54;20761;-82
2022/04/15 05:47:58;;;;;;;5.47;3.50;;;;;;;11.85;72.14;100554.53;1088955;54;20022;-83
2022/04/15 05:49:03;;;;;;;6.45;3.70;;;;;;;11.83;72.03;100554.69;1088960;54;20619;-83
2022/04/15 05:50:08;;;;;;;5.70;4.00;;;;;;;11.82;72.08;100555.66;1089059;54;20018;-84
2022/04/15 05:51:10;;;;;;;5.22;3.35;;;;;;;11.88;71.87;100559.63;1088911;54;20019;-83
2022/04/15 05:52:15;;;;;;;4.93;3.40;;;;;;;11.91;72.11;100553.94;1088806;54;20038;-85
2022/04/15 05:53:16;;;;;;;5.45;3.45;;;;;;;11.91;71.87;100558.47;1088457;54;20753;-84
2022/04/15 05:54:21;;;;;;;5.80;3.42;;;;;;;11.93;71.78;100562.69;1088488;54;20018;-82
2022/04/15 05:56:30;;;;;;;5.75;3.45;;;;;;;11.97;71.49;100561.47;1088600;54;20021;-84
2022/04/15 05:57:32;;;;;;;4.47;2.85;;;;;;;12.01;71.56;100564.72;1091625;46;20039;-83
2022/04/15 05:58:38;;;;;;;6.05;3.78;;;;;;;11.98;71.43;100563.19;1088734;54;20014;-84
2022/04/15 05:59:39;;;;;;;7.53;3.30;;;;;;;12.05;71.31;100576.00;1088594;54;20038;-83
2022/04/15 06:00:45;;;;;;;6.38;3.72;;;;;;;12.08;71.37;100575.72;1088531;54;20023;-84
2022/04/15 06:01:51;;;;;;;6.53;3.17;;;;;;;12.08;71.05;100578.41;1088700;54;20025;-83
2022/04/15 06:02:59;;;;;;;5.65;3.45;;;;;;;12.07;71.31;100574.84;1088760;46;20049;-83
2022/04/15 06:04:03;;;;;;;4.97;3.42;;;;;;;12.14;71.20;100575.16;1093467;46;20019;-85
2022/04/15 06:05:08;;;;;;;4.75;3.08;;;;;;;12.16;70.97;100575.84;1093033;46;20029;-84
2022/04/15 06:06:12;;;;;;;5.72;4.00;;;;;;;12.18;71.00;100576.56;1088642;54;20023;-83
2022/04/15 06:07:14;;;;;;;5.55;3.20;;;;;;;12.23;71.09;100579.66;1088436;54;20050;-82
2022/04/15 06:08:19;;;;;;;6.75;3.20;;;;;;;12.24;70.65;100581.34;1088417;54;20038;-81
2022/04/15 06:09:24;;;;;;;7.03;3.45;;;;;;;12.25;70.88;100577.69;1090934;39;20570;-83
2022/04/15 06:10:38;;;;;;;6.10;3.35;;;;;;;12.17;71.06;100580.22;1094005;46;20023;-83
2022/04/15 06:11:43;;;;;;;5.70;3.83;;;;;;;12.23;71.29;100578.81;1088414;54;20054;-85
2022/04/15 06:13:06;;;;;;;4.95;3.13;;;;;;;12.29;70.86;100584.44;1088443;54;20686;-84
2022/04/15 06:14:10;;;;;;;6.00;3.35;;;;;;;12.29;70.89;100584.44;1088390;54;20042;-83
2022/04/15 06:15:14;;;;;;;4.72;3.00;;;;;;;12.35;70.79;100591.06;1088389;54;20741;-84
2022/04/15 06:16:20;;;;;;;5.03;3.47;;;;;;;12.36;70.59;100583.88;1088083;54;20035;-82
2022/04/15 06:17:24;;;;;;;5.35;3.40;;;;;;;12.31;70.67;100582.47;1087988;54;20045;-79
2022/04/15 06:18:34;;;;;;;5.93;3.75;;;;;;;12.35;70.81;100590.22;1088328;54;20031;-82
2022/04/15 06:19:38;;;;;;;7.50;3.53;;;;;;;12.32;70.72;100589.50;1088268;54;20038;-81
2022/04/15 06:20:41;;;;;;;5.88;3.42;;;;;;;12.26;71.04;100583.88;1088238;54;20026;-79
2022/04/15 06:21:47;;;;;;;5.40;3.72;;;;;;;12.23;70.83;100584.19;1089637;46;20029;-83
2022/04/15 06:22:49;;;;;;;5.45;3.33;;;;;;;12.30;70.94;100585.28;1090591;46;20026;-80
2022/04/15 06:23:54;;;;;;;5.40;3.70;;;;;;;12.28;70.99;100588.09;1088463;54;20078;-83
2022/04/15 06:24:56;;;;;;;5.95;3.65;;;;;;;12.25;71.03;100585.72;1088511;54;20031;-84
2022/04/15 06:26:00;;;;;;;6.45;3.75;;;;;;;12.30;70.73;100583.44;1088536;54;20018;-82
2022/04/15 06:27:03;;;;;;;8.80;4.38;;;;;;;12.29;70.87;100588.97;1088421;54;20042;-83
2022/04/15 06:28:08;;;;;;;5.05;3.30;;;;;;;12.40;70.64;100593.31;1088307;54;20037;-83
2022/04/15 06:29:09;;;;;;;5.88;3.63;;;;;;;12.45;70.36;100588.38;1088290;54;20049;-81
2022/04/15 06:30:14;;;;;;;6.90;4.03;;;;;;;12.42;70.42;100589.50;1088372;54;20114;-82
2022/04/15 06:31:17;;;;;;;6.03;3.85;;;;;;;12.48;70.25;100590.75;1088331;54;20038;-80
2022/04/15 06:32:26;;;;;;;5.47;3.80;;;;;;;12.51;70.27;100595.00;1088351;54;20094;-84
2022/04/15 06:33:33;;;;;;;6.25;4.43;;;;;;;12.59;70.28;100589.75;1088237;54;20019;-85
2022/04/15 06:35:41;;;;;;;7.95;3.85;;;;;;;12.67;69.77;100592.56;1088308;54;20030;-85
2022/04/15 06:38:52;;;;;;;5.53;4.00;;;;;;;12.73;69.69;100585.78;1088418;54;20026;-82
2022/04/15 06:39:54;;;;;;;6.45;4.10;;;;;;;12.77;69.84;100585.34;1088498;54;20678;-85
2022/04/15 06:40:58;;;;;;;7.13;4.22;;;;;;;12.82;69.53;100590.25;1090054;39;20606;-82
2022/04/15 06:42:00;;;;;;;6.35;3.60;;;;;;;12.88;69.37;100589.66;1089106;46;20022;-82
2022/04/15 06:43:04;;;;;;;6.68;3.72;;;;;;;12.95;69.23;100596.13;1092047;46;20022;-82